Estación Meteorológica Peña el Pijo (Robertgarden) [ 12/17/17 01:31:28 CET ]

Fecha Hora Presion(HPa) Temp (°C) Humedad % Rocio (°C) Viento ( m/s) Direccion Lluvia 1Hora(mm) Lluvia 24H(mm) LLuvia Total(mm)
2017-Oct-01 01:01:35 1012.800 14.4 62 7.2         1457.65
2017-Oct-01 02:01:54 1012.700 14.4 62 7.2         1457.65
2017-Oct-01 03:02:09 1012.900 12.5 66 6.3         1457.65
2017-Oct-01 04:09:53 1012.700 11.6 70 6.3         1457.65
2017-Oct-01 05:02:00 1012.600 11.1 71 6.1         1457.65
2017-Oct-01 06:02:15 1012.500 11.3 73 6.6         1457.65
2017-Oct-01 07:01:31 1012.800 11.9 72 7.0         1457.65
2017-Oct-01 08:01:46 1012.900 11.6 74 7.1         1457.65
2017-Oct-01 09:01:51 1013.200 12.7 74 8.2         1457.65
2017-Oct-01 10:01:49 1013.500 16.1 68 10.2         1457.65
2017-Oct-01 11:01:40 1013.600 21.1 59 12.8         1457.65
2017-Oct-01 12:01:40 1014.000 21.6 53 11.6         1457.65
2017-Oct-01 13:01:42 1013.800 23.8 47 11.8 1.5 SSW     1457.65
2017-Oct-01 14:01:35 1013.400 26.6 38 11.1         1457.65
2017-Oct-01 15:01:44 1013.400 24.4 39 9.5         1457.65
2017-Oct-01 16:02:02 1013.100 26.0 41 11.7         1457.65
2017-Oct-01 17:02:01 1012.900 24.1 43 10.7         1457.65
2017-Oct-01 18:01:47 1013.000 23.8 43 10.4         1457.65
2017-Oct-01 19:01:57 1014.000 21.5 56 12.3 1.4 NNE     1457.65
2017-Oct-01 20:01:46 1014.200 20.2 60 12.2         1457.65
2017-Oct-01 21:01:52 1014.800 19.0 63 11.8         1457.65
2017-Oct-01 22:01:43 1015.300 18.0 67 11.8         1457.65
2017-Oct-01 23:02:05 1015.500 15.9 71 10.7         1457.65

Temperatura Máxima:26°    Temperatura Mínima:11°
Presión Máxima:1015.500 Hpa    Presión Mínima:1012.500 Hpa


Volver